Time;durP1;ratioP1;P1;durP2;ratioP2;P2;SDS_P1;SDS_P2;PMS_P1;PMS_P2;Temp;Humidity;BMP_temperature;BMP_pressure;BME280_temperature;BME280_humidity;BME280_pressure;Samples;Min_cycle;Max_cycle;Signal;HPM_P1;HPM_P2
2021/06/10 00:01:24;;;;;;;3.03;2.08;;;19.70;67.00;;;;;;3540541;40;20042;-71
2021/06/10 00:03:50;;;;;;;2.10;1.90;;;19.70;67.40;;;;;;3543697;40;20035;-70
2021/06/10 00:06:16;;;;;;;2.22;2.00;;;19.70;67.50;;;;;;3544997;40;20042;-71
2021/06/10 00:08:41;;;;;;;2.30;2.08;;;19.70;67.40;;;;;;3546582;40;20035;-71
2021/06/10 00:11:07;;;;;;;2.95;2.00;;;19.70;67.30;;;;;;3547746;40;20057;-70
2021/06/10 00:13:33;;;;;;;2.42;2.22;;;19.70;67.20;;;;;;3549110;40;20053;-70
2021/06/10 00:15:58;;;;;;;2.63;2.20;;;19.70;67.40;;;;;;3550129;40;20037;-70
2021/06/10 00:18:24;;;;;;;3.42;2.35;;;19.70;67.50;;;;;;3549676;40;20097;-70
2021/06/10 00:20:50;;;;;;;3.90;2.53;;;19.70;68.10;;;;;;3548341;40;20081;-70
2021/06/10 00:23:15;;;;;;;2.50;2.30;;;19.60;68.20;;;;;;3546754;40;20960;-71
2021/06/10 00:25:41;;;;;;;2.88;2.67;;;19.60;68.30;;;;;;3545997;40;20034;-71
2021/06/10 00:28:07;;;;;;;3.63;2.85;;;19.60;68.40;;;;;;3544023;40;20039;-71
2021/06/10 00:30:34;;;;;;;2.72;2.53;;;19.60;68.70;;;;;;3542727;40;20353;-71
2021/06/10 00:33:00;;;;;;;3.42;3.10;;;19.50;69.20;;;;;;3548757;40;20030;-71
2021/06/10 00:35:26;;;;;;;3.40;2.72;;;19.50;69.00;;;;;;3541368;40;20038;-69
2021/06/10 00:37:58;;;;;;;3.13;2.63;;;19.50;68.20;;;;;;3542531;40;20030;-71
2021/06/10 00:40:32;;;;;;;4.40;2.63;;;19.50;68.10;;;;;;3542647;40;20034;-71
2021/06/10 00:42:58;;;;;;;3.88;3.28;;;19.50;68.60;;;;;;3545221;40;20046;-71
2021/06/10 00:45:25;;;;;;;4.93;3.25;;;19.50;68.90;;;;;;3546316;40;20741;-71
2021/06/10 00:47:51;;;;;;;4.53;3.38;;;19.50;69.80;;;;;;3547552;40;20120;-71
2021/06/10 00:50:25;;;;;;;4.65;3.60;;;19.50;70.20;;;;;;3548839;40;20030;-71
2021/06/10 00:52:51;;;;;;;5.50;3.83;;;19.50;70.10;;;;;;3540071;40;20467;-70
2021/06/10 00:55:17;;;;;;;5.18;4.22;;;19.50;70.40;;;;;;3541596;40;20026;-71
2021/06/10 00:57:43;;;;;;;3.90;3.50;;;19.60;70.90;;;;;;3542741;40;20032;-70
2021/06/10 01:00:10;;;;;;;3.92;3.50;;;19.60;71.10;;;;;;3544766;40;20359;-69
2021/06/10 01:02:36;;;;;;;3.67;3.28;;;19.60;71.10;;;;;;3545913;40;20121;-69
2021/06/10 01:05:07;;;;;;;3.75;3.40;;;19.60;71.10;;;;;;3544159;40;20038;-71
2021/06/10 01:07:58;;;;;;;5.30;3.25;;;19.60;71.00;;;;;;3542490;40;20030;-71
2021/06/10 01:10:26;;;;;;;3.80;3.35;;;19.60;71.10;;;;;;3541317;40;20026;-71
2021/06/10 01:12:57;;;;;;;4.00;3.60;;;19.70;71.20;;;;;;3540586;40;20041;-71
2021/06/10 01:15:28;;;;;;;4.07;3.63;;;19.70;71.30;;;;;;3548069;40;20030;-70
2021/06/10 01:17:54;;;;;;;3.90;3.50;;;19.70;71.40;;;;;;3542715;40;20026;-70
2021/06/10 01:20:25;;;;;;;4.13;3.70;;;19.70;71.50;;;;;;3545441;40;20038;-70
2021/06/10 01:22:57;;;;;;;4.32;3.88;;;19.70;71.60;;;;;;3544441;40;20042;-70
2021/06/10 01:25:41;;;;;;;5.57;4.15;;;19.70;71.40;;;;;;3541034;40;20057;-70
2021/06/10 01:28:36;;;;;;;6.20;3.90;;;19.70;71.20;;;;;;3540812;40;20141;-71
2021/06/10 01:31:08;;;;;;;4.15;3.80;;;19.80;71.10;;;;;;3539476;40;20034;-71
2021/06/10 01:33:40;;;;;;;5.85;4.47;;;19.70;70.90;;;;;;3547952;40;20033;-71
2021/06/10 01:36:06;;;;;;;3.97;3.58;;;19.80;71.00;;;;;;3541150;40;20029;-71
2021/06/10 01:38:32;;;;;;;4.68;3.00;;;19.70;70.60;;;;;;3543797;40;20035;-71
2021/06/10 01:40:59;;;;;;;5.75;3.45;;;19.70;69.80;;;;;;3543879;40;20022;-71
2021/06/10 01:43:27;;;;;;;4.22;3.83;;;19.60;70.00;;;;;;3546558;40;20498;-71
2021/06/10 01:45:56;;;;;;;3.47;3.15;;;19.60;70.10;;;;;;3547689;40;20033;-71
2021/06/10 01:48:23;;;;;;;3.13;2.72;;;19.50;69.90;;;;;;3543320;40;20090;-70
2021/06/10 01:50:50;;;;;;;3.95;3.58;;;19.40;70.10;;;;;;3545880;40;20050;-71
2021/06/10 01:53:17;;;;;;;3.20;2.90;;;19.40;70.80;;;;;;3543074;40;20087;-72
2021/06/10 01:55:45;;;;;;;3.10;2.80;;;19.40;70.90;;;;;;3551179;40;20041;-70
2021/06/10 01:58:12;;;;;;;3.63;2.85;;;19.30;71.10;;;;;;3545001;40;20037;-72
2021/06/10 02:00:40;;;;;;;2.58;2.38;;;19.20;71.10;;;;;;3543351;40;20029;-70
2021/06/10 02:03:07;;;;;;;4.05;2.63;;;19.20;70.40;;;;;;3544953;40;20583;-69
2021/06/10 02:05:36;;;;;;;2.80;2.60;;;19.10;71.40;;;;;;3541901;40;20034;-70
2021/06/10 02:08:03;;;;;;;2.90;2.67;;;19.10;71.70;;;;;;3546526;40;20034;-70
2021/06/10 02:10:29;;;;;;;3.40;3.10;;;19.10;71.90;;;;;;3546295;40;20908;-71
2021/06/10 02:12:55;;;;;;;4.53;4.13;;;19.10;72.40;;;;;;3545277;40;20038;-71
2021/06/10 02:15:22;;;;;;;5.05;4.55;;;19.10;72.90;;;;;;3546767;40;20711;-71
2021/06/10 02:17:48;;;;;;;4.82;4.20;;;19.20;73.10;;;;;;3545864;40;20050;-71
2021/06/10 02:20:16;;;;;;;5.30;4.80;;;19.20;73.20;;;;;;3543607;40;20113;-70
2021/06/10 02:22:43;;;;;;;5.32;4.82;;;19.30;73.40;;;;;;3542324;40;20026;-71
2021/06/10 02:25:09;;;;;;;5.25;4.75;;;19.30;73.50;;;;;;3546226;40;20696;-70
2021/06/10 02:27:35;;;;;;;4.90;4.35;;;19.30;73.40;;;;;;3543501;40;20101;-71
2021/06/10 02:30:00;;;;;;;4.88;4.47;;;19.40;73.50;;;;;;3543020;40;20045;-71
2021/06/10 02:32:26;;;;;;;4.78;4.38;;;19.40;73.60;;;;;;3545018;40;20057;-70
2021/06/10 02:34:52;;;;;;;6.35;4.15;;;19.40;73.40;;;;;;3546119;40;20038;-71
2021/06/10 02:37:20;;;;;;;4.50;3.40;;;19.50;72.90;;;;;;3547149;40;20053;-72
2021/06/10 02:39:47;;;;;;;2.40;2.20;;;19.50;71.00;;;;;;3544283;40;20518;-70
2021/06/10 02:42:15;;;;;;;4.13;2.45;;;19.40;69.70;;;;;;3541841;40;20030;-71
2021/06/10 02:44:44;;;;;;;4.15;2.33;;;19.40;69.60;;;;;;3544383;40;20073;-71
2021/06/10 02:47:11;;;;;;;5.60;2.30;;;19.40;69.80;;;;;;3548984;40;20030;-69
2021/06/10 02:49:40;;;;;;;3.42;2.55;;;19.40;70.30;;;;;;3547557;40;20034;-70
2021/06/10 02:52:07;;;;;;;2.97;2.35;;;19.30;70.50;;;;;;3546161;40;20034;-70
2021/06/10 02:54:35;;;;;;;3.45;3.08;;;19.30;70.80;;;;;;3547841;40;20434;-70
2021/06/10 02:57:05;;;;;;;3.80;3.17;;;19.30;71.30;;;;;;3546324;40;20056;-71
2021/06/10 02:59:33;;;;;;;7.88;4.47;;;19.30;71.70;;;;;;3547351;40;20117;-70
2021/06/10 03:01:59;;;;;;;5.70;4.38;;;19.30;72.60;;;;;;3546232;40;20052;-70
2021/06/10 03:04:25;;;;;;;5.45;4.55;;;19.20;73.20;;;;;;3548814;40;20616;-70
2021/06/10 03:06:52;;;;;;;5.60;4.93;;;19.20;74.00;;;;;;3549267;40;20116;-71
2021/06/10 03:09:19;;;;;;;6.85;5.30;;;19.20;74.30;;;;;;3547419;40;20037;-71
2021/06/10 03:11:46;;;;;;;7.78;4.95;;;19.20;74.40;;;;;;3546352;40;20315;-71
2021/06/10 03:14:13;;;;;;;7.38;4.97;;;19.20;74.60;;;;;;3547879;40;20026;-71
2021/06/10 03:16:40;;;;;;;5.85;4.63;;;19.20;74.90;;;;;;3551861;40;20536;-71
2021/06/10 03:19:07;;;;;;;6.05;5.45;;;19.20;75.00;;;;;;3551554;40;20041;-71
2021/06/10 03:21:34;;;;;;;9.07;5.45;;;19.30;75.20;;;;;;3539997;40;20030;-71
2021/06/10 03:24:00;;;;;;;5.82;5.28;;;19.30;75.30;;;;;;3540675;40;20336;-71
2021/06/10 03:26:27;;;;;;;6.13;5.30;;;19.30;75.30;;;;;;3544617;40;20045;-71
2021/06/10 03:28:53;;;;;;;6.13;5.53;;;19.40;75.30;;;;;;3546991;40;20041;-71
2021/06/10 03:31:20;;;;;;;6.20;5.57;;;19.40;75.20;;;;;;3547933;40;20038;-71
2021/06/10 03:33:48;;;;;;;6.07;5.20;;;19.40;75.30;;;;;;3546312;40;20066;-71
2021/06/10 03:36:15;;;;;;;6.05;5.45;;;19.50;75.60;;;;;;3554591;40;20041;-71
2021/06/10 03:38:42;;;;;;;5.85;5.30;;;19.50;75.50;;;;;;3541501;40;20054;-71
2021/06/10 03:41:11;;;;;;;6.30;5.70;;;19.50;75.40;;;;;;3544308;40;20345;-71
2021/06/10 03:43:38;;;;;;;5.82;5.22;;;19.50;75.60;;;;;;3548667;40;20102;-71
2021/06/10 03:46:07;;;;;;;7.18;4.97;;;19.60;75.70;;;;;;3547149;40;20301;-71
2021/06/10 03:48:33;;;;;;;6.47;5.88;;;19.60;75.60;;;;;;3545995;40;20123;-71
2021/06/10 03:50:59;;;;;;;6.25;5.65;;;19.70;75.50;;;;;;3546804;40;20333;-71
2021/06/10 03:53:25;;;;;;;6.35;5.57;;;19.70;74.80;;;;;;3548601;40;20037;-71
2021/06/10 03:55:50;;;;;;;6.13;5.53;;;19.70;75.40;;;;;;3549761;40;20014;-71
2021/06/10 03:58:16;;;;;;;5.78;5.15;;;19.70;74.60;;;;;;3547642;40;20797;-71
2021/06/10 04:00:42;;;;;;;7.40;5.22;;;19.70;74.60;;;;;;3548183;40;20038;-71
2021/06/10 04:03:07;;;;;;;6.22;4.95;;;19.60;72.60;;;;;;3554860;40;20030;-72
2021/06/10 04:05:35;;;;;;;5.40;4.90;;;19.60;72.50;;;;;;3546037;40;20023;-71
2021/06/10 04:08:00;;;;;;;7.47;4.45;;;19.60;72.20;;;;;;3546301;40;20511;-72
2021/06/10 04:10:26;;;;;;;4.90;4.40;;;19.60;72.50;;;;;;3546457;40;20135;-71
2021/06/10 04:12:52;;;;;;;5.40;4.65;;;19.60;72.80;;;;;;3548837;40;20727;-72
2021/06/10 04:15:18;;;;;;;6.03;4.93;;;19.60;72.80;;;;;;3545788;40;20038;-71
2021/06/10 04:17:44;;;;;;;5.70;4.15;;;19.60;72.60;;;;;;3540747;40;20344;-72
2021/06/10 04:20:11;;;;;;;5.93;4.78;;;19.70;72.10;;;;;;3542484;40;20132;-72
2021/06/10 04:22:37;;;;;;;4.63;4.18;;;19.70;71.80;;;;;;3543632;40;20030;-71
2021/06/10 04:25:04;;;;;;;4.80;4.28;;;19.70;71.80;;;;;;3547344;40;20037;-71
2021/06/10 04:27:30;;;;;;;4.72;4.22;;;19.70;71.50;;;;;;3546767;40;20613;-70
2021/06/10 04:29:55;;;;;;;5.00;3.97;;;19.70;71.70;;;;;;3547291;40;20042;-71
2021/06/10 04:32:21;;;;;;;4.18;3.78;;;19.70;72.20;;;;;;3542518;40;20147;-71
2021/06/10 04:34:47;;;;;;;6.28;4.47;;;19.70;72.40;;;;;;3541502;40;20037;-72
2021/06/10 04:37:12;;;;;;;5.78;4.30;;;19.80;71.70;;;;;;3549052;40;20026;-71
2021/06/10 04:39:38;;;;;;;5.75;4.20;;;19.80;69.90;;;;;;3544288;40;20038;-72
2021/06/10 04:42:04;;;;;;;6.13;3.88;;;19.90;70.00;;;;;;3545377;40;20044;-71
2021/06/10 04:44:30;;;;;;;5.68;3.92;;;20.00;70.30;;;;;;3545077;40;20136;-71
2021/06/10 04:46:56;;;;;;;4.47;3.50;;;20.10;70.60;;;;;;3547595;40;20292;-71
2021/06/10 04:49:22;;;;;;;4.50;3.97;;;20.10;69.60;;;;;;3547484;40;20097;-71
2021/06/10 04:51:47;;;;;;;4.22;3.55;;;20.20;68.70;;;;;;3539786;40;20037;-72
2021/06/10 04:54:13;;;;;;;9.73;3.80;;;20.30;68.90;;;;;;3542760;40;20030;-72
2021/06/10 04:56:38;;;;;;;3.78;3.38;;;20.30;68.60;;;;;;3544960;40;20034;-71
2021/06/10 04:59:04;;;;;;;3.50;3.20;;;20.40;69.20;;;;;;3543515;40;20031;-71
2021/06/10 05:01:30;;;;;;;4.40;3.65;;;20.50;69.00;;;;;;3542964;40;20046;-70
2021/06/10 05:03:56;;;;;;;3.83;3.33;;;20.50;69.50;;;;;;3546533;40;20097;-71
2021/06/10 05:06:21;;;;;;;3.90;3.50;;;20.60;66.80;;;;;;3547209;40;20465;-71
2021/06/10 05:08:47;;;;;;;5.00;3.47;;;20.60;67.50;;;;;;3542727;40;20661;-72
2021/06/10 05:11:13;;;;;;;3.67;3.35;;;20.60;68.00;;;;;;3541420;40;20086;-72
2021/06/10 05:13:38;;;;;;;4.03;3.63;;;20.60;67.40;;;;;;3544944;40;20071;-71
2021/06/10 05:16:04;;;;;;;5.43;3.78;;;20.70;68.10;;;;;;3546052;40;20092;-72
2021/06/10 05:18:30;;;;;;;6.68;3.30;;;20.70;67.20;;;;;;3546832;40;20045;-66
2021/06/10 05:20:56;;;;;;;5.97;3.80;;;20.80;67.20;;;;;;3546283;40;20081;-71
2021/06/10 05:23:21;;;;;;;6.22;3.47;;;21.00;67.00;;;;;;3546352;40;20034;-71
2021/06/10 05:25:47;;;;;;;4.22;3.70;;;21.20;67.40;;;;;;3546444;40;20381;-72
2021/06/10 05:28:13;;;;;;;5.38;3.42;;;21.30;66.90;;;;;;3542778;40;20136;-71
2021/06/10 05:30:39;;;;;;;5.88;3.45;;;21.30;67.30;;;;;;3541611;40;20026;-72
2021/06/10 05:33:04;;;;;;;4.75;3.60;;;21.30;66.80;;;;;;3539218;40;20042;-72
2021/06/10 05:35:30;;;;;;;4.63;3.28;;;21.30;67.00;;;;;;3545469;40;20045;-72
2021/06/10 05:37:56;;;;;;;5.85;3.92;;;21.20;67.90;;;;;;3544050;40;20050;-72
2021/06/10 05:40:21;;;;;;;4.38;3.83;;;21.20;67.90;;;;;;3553429;40;20033;-72
2021/06/10 05:42:47;;;;;;;4.60;3.70;;;21.30;66.70;;;;;;3548129;40;20105;-72
2021/06/10 05:45:13;;;;;;;4.28;3.58;;;21.40;66.60;;;;;;3548308;40;20030;-72
2021/06/10 05:47:39;;;;;;;5.68;3.83;;;21.40;66.40;;;;;;3542529;40;20396;-72
2021/06/10 05:50:06;;;;;;;3.92;3.58;;;21.40;66.80;;;;;;3544112;40;20041;-72
2021/06/10 05:52:31;;;;;;;6.05;4.03;;;21.50;66.80;;;;;;3549326;40;20034;-70
2021/06/10 05:54:58;;;;;;;5.13;4.05;;;21.70;66.60;;;;;;3547022;40;20572;-71
2021/06/10 05:57:25;;;;;;;4.88;3.58;;;21.80;65.70;;;;;;3546127;40;20058;-72
2021/06/10 05:59:50;;;;;;;5.20;3.95;;;21.90;65.90;;;;;;3544811;40;20038;-71
2021/06/10 06:02:16;;;;;;;5.57;4.07;;;22.00;65.10;;;;;;3544322;40;20570;-71
2021/06/10 06:04:43;;;;;;;4.55;4.13;;;22.10;64.10;;;;;;3542988;40;20160;-71
2021/06/10 06:07:09;;;;;;;4.97;4.10;;;22.20;64.50;;;;;;3551089;40;20082;-71
2021/06/10 06:09:36;;;;;;;4.07;3.67;;;22.20;64.10;;;;;;3550173;40;20041;-71
2021/06/10 06:12:03;;;;;;;4.05;3.65;;;22.20;63.00;;;;;;3548774;40;20319;-72
2021/06/10 06:14:34;;;;;;;3.40;3.10;;;22.30;63.30;;;;;;3556096;40;20136;-72
2021/06/10 06:17:05;;;;;;;4.90;3.60;;;22.40;63.50;;;;;;3529249;40;20858;-68
2021/06/10 06:19:31;;;;;;;4.25;3.45;;;22.50;62.10;;;;;;3544400;40;20029;-70
2021/06/10 06:21:57;;;;;;;5.05;3.42;;;22.60;61.70;;;;;;3544773;40;20304;-71
2021/06/10 06:24:22;;;;;;;3.72;3.20;;;22.70;61.60;;;;;;3542476;40;20030;-72
2021/06/10 06:26:48;;;;;;;4.03;3.47;;;22.80;61.00;;;;;;3542032;40;20593;-73
2021/06/10 06:29:15;;;;;;;4.03;3.30;;;22.90;60.80;;;;;;3543654;40;20060;-72
2021/06/10 06:31:40;;;;;;;4.68;3.63;;;23.10;61.20;;;;;;3543914;40;20039;-72
2021/06/10 06:34:06;;;;;;;6.20;4.05;;;23.20;60.60;;;;;;3552124;40;20038;-72
2021/06/10 06:36:32;;;;;;;5.00;3.50;;;23.30;60.00;;;;;;3549403;40;20735;-72
2021/06/10 06:38:58;;;;;;;4.28;3.38;;;23.20;60.60;;;;;;3546981;40;20037;-72
2021/06/10 06:41:24;;;;;;;4.75;3.58;;;23.20;60.70;;;;;;3544160;40;20038;-73
2021/06/10 06:43:50;;;;;;;7.20;3.83;;;23.30;61.60;;;;;;3543011;40;20049;-72
2021/06/10 06:46:16;;;;;;;8.73;3.40;;;23.30;60.60;;;;;;3541904;40;20034;-72
2021/06/10 06:48:42;;;;;;;5.10;3.63;;;23.20;60.70;;;;;;3537949;40;20053;-71
2021/06/10 06:51:09;;;;;;;4.60;3.97;;;23.30;60.40;;;;;;3553429;40;20070;-72
2021/06/10 06:53:35;;;;;;;6.65;3.90;;;23.40;59.60;;;;;;3546756;40;20044;-72
2021/06/10 06:56:02;;;;;;;3.70;3.03;;;23.40;59.00;;;;;;3548355;40;20034;-74
2021/06/10 06:58:28;;;;;;;5.70;3.60;;;23.50;59.30;;;;;;3541853;40;20049;-72
2021/06/10 07:00:54;;;;;;;5.65;3.85;;;23.50;59.50;;;;;;3538563;40;20023;-72
2021/06/10 07:03:21;;;;;;;4.90;4.13;;;23.60;59.90;;;;;;3541253;40;20027;-72
2021/06/10 07:05:47;;;;;;;5.68;3.67;;;23.70;59.30;;;;;;3544549;40;20026;-72
2021/06/10 07:08:13;;;;;;;8.50;3.97;;;23.80;59.30;;;;;;3545621;40;20031;-72
2021/06/10 07:10:39;;;;;;;4.60;3.70;;;23.80;59.20;;;;;;3546143;40;20132;-72
2021/06/10 07:13:04;;;;;;;6.93;3.70;;;23.80;59.40;;;;;;3547112;40;20050;-72
2021/06/10 07:15:31;;;;;;;3.78;3.08;;;23.90;59.40;;;;;;3548415;40;20022;-73
2021/06/10 07:17:57;;;;;;;3.55;3.25;;;24.00;59.20;;;;;;3538409;40;20062;-72
2021/06/10 07:20:23;;;;;;;7.72;3.95;;;24.20;58.90;;;;;;3542926;40;20124;-72
2021/06/10 07:22:49;;;;;;;6.32;3.47;;;24.30;58.90;;;;;;3547964;40;20113;-71
2021/06/10 07:25:15;;;;;;;6.07;3.10;;;24.40;58.20;;;;;;3545568;40;20045;-74
2021/06/10 07:27:43;;;;;;;5.57;3.55;;;24.50;56.20;;;;;;3545653;40;20068;-71
2021/06/10 07:30:09;;;;;;;4.00;2.70;;;24.60;56.00;;;;;;3553820;40;20354;-72
2021/06/10 07:32:35;;;;;;;3.53;3.20;;;24.70;55.70;;;;;;3546967;40;20038;-67
2021/06/10 07:35:01;;;;;;;5.28;2.95;;;24.80;55.70;;;;;;3546537;40;20034;-72
2021/06/10 07:37:26;;;;;;;4.15;2.60;;;24.90;54.50;;;;;;3541028;40;20058;-72
2021/06/10 07:39:52;;;;;;;4.63;2.95;;;25.00;53.00;;;;;;3542393;40;20583;-74
2021/06/10 07:42:18;;;;;;;3.72;2.95;;;25.10;52.00;;;;;;3544541;40;20409;-67
2021/06/10 07:44:44;;;;;;;5.60;3.22;;;25.20;52.20;;;;;;3543068;40;20041;-67
2021/06/10 07:47:09;;;;;;;5.30;3.28;;;25.30;51.00;;;;;;3546783;40;20038;-72
2021/06/10 07:49:35;;;;;;;2.92;2.60;;;25.40;50.40;;;;;;3540666;40;20026;-72
2021/06/10 07:52:02;;;;;;;6.47;4.57;;;25.40;50.60;;;;;;3544496;40;20054;-67
2021/06/10 07:54:27;;;;;;;4.60;3.80;;;25.40;50.60;;;;;;3544514;40;20033;-71
2021/06/10 07:56:53;;;;;;;4.88;3.63;;;25.50;50.10;;;;;;3546200;40;20026;-71
2021/06/10 07:59:25;;;;;;;4.40;3.13;;;25.50;50.30;;;;;;3549532;40;20037;-72
2021/06/10 08:01:51;;;;;;;6.80;4.15;;;25.60;50.30;;;;;;3548047;40;20763;-75
2021/06/10 08:04:18;;;;;;;7.78;3.90;;;25.70;50.60;;;;;;3546145;40;20038;-74
2021/06/10 08:06:44;;;;;;;5.38;4.55;;;25.80;50.30;;;;;;3552569;40;20031;-72
2021/06/10 08:09:10;;;;;;;5.95;4.65;;;25.80;51.10;;;;;;3540625;40;20038;-72
2021/06/10 08:11:36;;;;;;;5.32;4.82;;;25.80;50.10;;;;;;3544716;40;20033;-71
2021/06/10 08:14:02;;;;;;;6.88;4.15;;;25.90;49.40;;;;;;3549268;40;20141;-72
2021/06/10 08:16:28;;;;;;;4.20;3.53;;;25.90;49.70;;;;;;3549011;40;20046;-71
2021/06/10 08:18:53;;;;;;;7.30;5.82;;;25.90;49.80;;;;;;3544808;40;20831;-71
2021/06/10 08:21:19;;;;;;;7.93;6.13;;;26.00;49.20;;;;;;3546889;40;20030;-71
2021/06/10 08:23:45;;;;;;;6.65;5.28;;;26.10;50.40;;;;;;3545478;40;20032;-72
2021/06/10 08:26:10;;;;;;;6.75;5.10;;;26.20;50.30;;;;;;3544557;40;20040;-71
2021/06/10 08:28:36;;;;;;;5.45;4.93;;;26.40;49.60;;;;;;3541678;40;20053;-71
2021/06/10 08:31:02;;;;;;;4.88;4.38;;;26.40;49.70;;;;;;3548352;40;20144;-71
2021/06/10 08:33:28;;;;;;;5.32;4.50;;;26.50;49.80;;;;;;3540684;40;20252;-72
2021/06/10 08:35:56;;;;;;;6.72;5.53;;;26.60;50.10;;;;;;3546340;40;20030;-68
2021/06/10 08:38:22;;;;;;;6.03;4.75;;;26.50;49.00;;;;;;3542741;40;20034;-73
2021/06/10 08:40:48;;;;;;;7.30;5.00;;;26.60;49.90;;;;;;3544826;40;20090;-75
2021/06/10 08:43:14;;;;;;;6.47;5.65;;;26.60;49.90;;;;;;3546642;40;20029;-75
2021/06/10 08:45:47;;;;;;;6.13;4.97;;;26.70;49.60;;;;;;3550907;40;20046;-75
2021/06/10 08:48:13;;;;;;;6.28;4.68;;;26.70;49.50;;;;;;3541289;40;20127;-74
2021/06/10 08:50:39;;;;;;;9.82;5.85;;;26.80;49.80;;;;;;3540488;40;20036;-71
2021/06/10 08:53:07;;;;;;;7.63;6.85;;;26.90;49.60;;;;;;3539855;40;20411;-71
2021/06/10 08:55:33;;;;;;;6.70;5.57;;;26.90;49.70;;;;;;3540950;40;20038;-73
2021/06/10 08:58:00;;;;;;;6.45;5.55;;;27.00;49.60;;;;;;3550767;40;20043;-72
2021/06/10 09:00:28;;;;;;;6.45;5.75;;;27.00;49.90;;;;;;3544144;40;20066;-70
2021/06/10 09:02:59;;;;;;;7.50;6.50;;;27.00;49.30;;;;;;3546711;40;20673;-71
2021/06/10 09:05:26;;;;;;;9.13;5.53;;;27.00;49.80;;;;;;3545119;40;20030;-71
2021/06/10 09:08:10;;;;;;;8.27;6.13;;;27.00;49.70;;;;;;3553035;40;20033;-71
2021/06/10 09:10:36;;;;;;;7.85;5.85;;;27.00;49.90;;;;;;3530689;40;20616;-73
2021/06/10 09:13:06;;;;;;;6.07;4.68;;;27.10;49.90;;;;;;3540846;40;20038;-73
2021/06/10 09:15:35;;;;;;;10.93;5.93;;;27.20;49.90;;;;;;3539476;40;20288;-74
2021/06/10 09:18:02;;;;;;;7.60;5.65;;;27.20;50.10;;;;;;3543638;40;20053;-73
2021/06/10 09:20:42;;;;;;;8.10;6.10;;;27.30;49.30;;;;;;3545060;40;20111;-74
2021/06/10 09:23:15;;;;;;;6.75;5.13;;;27.30;49.00;;;;;;3554725;40;20040;-72
2021/06/10 09:25:43;;;;;;;10.43;6.43;;;27.30;49.20;;;;;;3544760;40;20042;-70
2021/06/10 09:28:11;;;;;;;11.95;5.40;;;27.40;47.70;;;;;;3543619;40;20431;-70
2021/06/10 09:30:47;;;;;;;5.57;4.85;;;27.40;47.70;;;;;;3550009;40;20074;-70
2021/06/10 09:33:20;;;;;;;;;;;27.50;47.60;;;;;;3546847;40;20769;-71
2021/06/10 09:35:47;;;;;;;6.75;5.53;;;27.50;47.40;;;;;;3547882;40;20039;-72
2021/06/10 09:38:17;;;;;;;5.32;4.47;;;27.60;47.70;;;;;;3546987;40;20026;-70
2021/06/10 09:40:43;;;;;;;8.55;5.10;;;27.70;47.10;;;;;;3547146;40;20030;-71
2021/06/10 09:43:10;;;;;;;6.47;5.43;;;27.70;47.00;;;;;;3549130;40;20079;-70
2021/06/10 09:45:37;;;;;;;6.18;5.57;;;27.80;46.50;;;;;;3541733;40;20176;-70
2021/06/10 09:48:05;;;;;;;10.68;5.22;;;27.80;46.60;;;;;;3541982;40;20607;-69
2021/06/10 09:50:53;;;;;;;6.20;5.05;;;27.80;46.70;;;;;;3543020;40;20034;-71
2021/06/10 09:53:20;;;;;;;6.35;5.22;;;27.80;46.60;;;;;;3547902;40;20038;-69
2021/06/10 09:55:58;;;;;;;8.88;5.07;;;27.80;46.40;;;;;;3546593;40;20026;-70
2021/06/10 09:58:30;;;;;;;5.15;4.65;;;27.70;46.70;;;;;;3546209;40;20045;-70
2021/06/10 10:01:02;;;;;;;9.85;6.68;;;27.80;46.80;;;;;;3548324;40;20070;-71
2021/06/10 10:03:32;;;;;;;5.32;4.75;;;27.80;46.10;;;;;;3543768;40;20030;-71
2021/06/10 10:06:06;;;;;;;8.15;5.40;;;27.70;47.30;;;;;;3539883;40;20038;-71
2021/06/10 10:08:33;;;;;;;14.73;9.55;;;27.70;46.30;;;;;;3541513;40;20045;-71
2021/06/10 10:11:01;;;;;;;6.85;5.10;;;27.70;46.80;;;;;;3542787;40;20440;-71
2021/06/10 10:13:30;;;;;;;5.65;5.05;;;27.70;47.20;;;;;;3546240;40;20788;-70
2021/06/10 10:16:00;;;;;;;7.45;5.22;;;27.60;46.60;;;;;;3541657;40;20030;-70
2021/06/10 10:18:26;;;;;;;5.75;5.25;;;27.70;48.20;;;;;;3542720;40;20053;-70
2021/06/10 10:20:52;;;;;;;5.20;4.63;;;27.70;48.00;;;;;;3546745;40;20034;-70
2021/06/10 10:23:19;;;;;;;6.10;4.45;;;27.70;46.80;;;;;;3548157;40;20037;-71
2021/06/10 10:25:44;;;;;;;5.80;5.03;;;27.70;47.30;;;;;;3549466;40;20076;-74
2021/06/10 10:28:13;;;;;;;6.40;5.22;;;27.80;47.70;;;;;;3544254;40;20084;-72
2021/06/10 10:30:42;;;;;;;3.97;3.67;;;27.80;46.90;;;;;;3545974;40;20072;-71
2021/06/10 10:33:22;;;;;;;6.00;4.13;;;27.70;47.90;;;;;;3547059;40;20459;-70
2021/06/10 10:36:03;;;;;;;5.57;5.00;;;27.70;47.50;;;;;;3552989;40;20043;-71
2021/06/10 10:38:40;;;;;;;5.57;4.80;;;27.70;48.30;;;;;;3545069;40;20046;-72
2021/06/10 10:41:21;;;;;;;7.13;3.97;;;27.70;47.70;;;;;;3544247;40;20413;-71
2021/06/10 10:43:47;;;;;;;5.80;5.30;;;27.80;47.90;;;;;;3540465;40;20352;-71
2021/06/10 10:46:18;;;;;;;6.63;5.10;;;27.90;46.70;;;;;;3544252;40;20506;-68
2021/06/10 10:48:50;;;;;;;5.88;4.05;;;28.00;47.00;;;;;;3542595;40;20431;-71
2021/06/10 10:51:34;;;;;;;4.32;3.80;;;27.90;47.00;;;;;;3545488;40;20630;-72
2021/06/10 10:54:03;;;;;;;6.15;4.22;;;27.90;47.20;;;;;;3546908;40;20128;-73
2021/06/10 10:56:39;;;;;;;5.32;4.13;;;28.10;46.40;;;;;;3546468;40;20026;-72
2021/06/10 10:59:16;;;;;;;8.05;4.45;;;28.20;47.10;;;;;;3541688;40;20041;-71
2021/06/10 11:02:01;;;;;;;5.63;4.68;;;28.10;47.00;;;;;;3543956;40;20050;-70
2021/06/10 11:04:49;;;;;;;5.97;4.70;;;28.10;46.40;;;;;;3549631;40;20057;-71
2021/06/10 11:07:33;;;;;;;5.80;5.18;;;28.00;46.90;;;;;;3547816;40;20061;-68
2021/06/10 11:10:00;;;;;;;6.47;5.32;;;28.20;45.80;;;;;;3552415;40;20079;-70
2021/06/10 11:12:41;;;;;;;4.22;3.78;;;28.30;46.30;;;;;;3544815;40;20131;-71
2021/06/10 11:15:25;;;;;;;3.60;3.30;;;28.30;45.50;;;;;;3548056;40;20057;-70
2021/06/10 11:17:58;;;;;;;4.85;4.40;;;28.40;45.70;;;;;;3547635;40;20201;-70
2021/06/10 11:20:39;;;;;;;6.78;3.95;;;28.40;45.90;;;;;;3538355;40;20019;-70
2021/06/10 11:23:26;;;;;;;5.13;4.60;;;28.50;45.70;;;;;;3548768;40;20040;-71
2021/06/10 11:25:54;;;;;;;4.90;4.10;;;28.60;45.90;;;;;;3550558;40;20037;-71
2021/06/10 11:28:28;;;;;;;4.20;3.70;;;28.70;45.50;;;;;;3542890;40;20045;-70
2021/06/10 11:31:16;;;;;;;4.47;4.07;;;28.60;44.90;;;;;;3544663;40;20614;-69
2021/06/10 11:33:42;;;;;;;5.32;4.05;;;28.60;45.90;;;;;;3550978;40;20034;-73
2021/06/10 11:36:10;;;;;;;5.40;4.40;;;28.60;45.00;;;;;;3541467;40;20600;-72
2021/06/10 11:38:43;;;;;;;4.68;4.07;;;28.70;44.20;;;;;;3549223;40;20293;-71
2021/06/10 11:41:23;;;;;;;5.22;3.85;;;28.80;43.90;;;;;;3550227;40;20045;-69
2021/06/10 11:43:55;;;;;;;6.30;3.75;;;28.80;44.30;;;;;;3542829;40;20486;-72
2021/06/10 11:46:34;;;;;;;6.68;3.80;;;28.70;44.20;;;;;;3542552;40;20069;-72
2021/06/10 11:49:00;;;;;;;5.32;3.42;;;28.70;44.20;;;;;;3551016;40;20120;-74
2021/06/10 11:51:28;;;;;;;4.63;3.65;;;28.70;44.40;;;;;;3543214;40;20050;-67
2021/06/10 11:53:56;;;;;;;8.35;5.25;;;28.70;44.70;;;;;;3537668;40;20041;-68
2021/06/10 11:56:27;;;;;;;6.18;4.50;;;28.70;44.00;;;;;;3541962;40;20034;-69
2021/06/10 11:58:56;;;;;;;4.60;3.72;;;28.70;43.70;;;;;;3548481;40;20064;-68
2021/06/10 12:01:21;;;;;;;8.25;6.55;;;28.70;43.80;;;;;;3547836;40;20041;-68
2021/06/10 12:03:47;;;;;;;7.93;5.28;;;28.60;43.60;;;;;;3544973;40;20010;-68
2021/06/10 12:06:16;;;;;;;5.65;4.60;;;28.70;44.20;;;;;;3546045;40;20034;-68
2021/06/10 12:08:46;;;;;;;4.22;3.80;;;28.70;43.30;;;;;;3544886;40;20065;-69
2021/06/10 12:11:14;;;;;;;5.85;4.10;;;28.70;43.10;;;;;;3547163;40;20037;-69
2021/06/10 12:13:47;;;;;;;4.70;3.80;;;28.80;41.30;;;;;;3549570;40;20034;-70
2021/06/10 12:16:14;;;;;;;4.60;3.88;;;28.80;43.80;;;;;;3549911;40;20068;-70
2021/06/10 12:18:44;;;;;;;5.93;3.78;;;28.90;42.30;;;;;;3546420;40;20040;-68
2021/06/10 12:21:14;;;;;;;4.63;3.20;;;28.90;42.60;;;;;;3541256;40;20033;-68
2021/06/10 12:23:50;;;;;;;4.55;3.80;;;28.90;42.70;;;;;;3547188;40;20033;-68
2021/06/10 12:26:20;;;;;;;7.25;3.80;;;28.90;41.00;;;;;;3545661;40;20061;-68
2021/06/10 12:28:54;;;;;;;7.75;3.80;;;28.90;40.90;;;;;;3547356;40;20045;-68
2021/06/10 12:31:21;;;;;;;4.80;3.15;;;28.90;41.90;;;;;;3546807;40;20042;-69
2021/06/10 12:33:52;;;;;;;5.15;3.33;;;28.90;41.50;;;;;;3542719;40;20341;-68
2021/06/10 12:36:22;;;;;;;3.50;3.20;;;29.00;41.20;;;;;;3541113;40;20400;-67
2021/06/10 12:38:54;;;;;;;4.00;3.58;;;29.00;41.00;;;;;;3545011;40;20140;-67
2021/06/10 12:41:31;;;;;;;3.90;3.50;;;29.00;42.10;;;;;;3545558;40;20045;-69
2021/06/10 12:44:08;;;;;;;3.80;3.00;;;29.00;41.70;;;;;;3544316;40;20042;-68
2021/06/10 12:46:44;;;;;;;3.33;3.00;;;29.10;39.70;;;;;;3545159;40;20569;-69
2021/06/10 12:49:10;;;;;;;4.40;3.58;;;29.10;39.80;;;;;;3542345;40;20031;-68
2021/06/10 12:51:44;;;;;;;5.53;3.20;;;29.20;40.20;;;;;;3539759;40;20631;-69
2021/06/10 12:54:11;;;;;;;4.78;3.63;;;29.20;40.40;;;;;;3542512;40;20446;-69